createdAt,value
2018-10-16T00:00:10.685Z,7.57
2018-10-16T00:01:10.618Z,7.53
2018-10-16T00:02:10.525Z,7.55
2018-10-16T00:03:10.509Z,7.47
2018-10-16T00:04:10.367Z,7.44
2018-10-16T00:05:10.305Z,7.42
2018-10-16T00:06:10.209Z,7.38
2018-10-16T00:07:10.134Z,7.37
2018-10-16T00:08:10.050Z,7.39
2018-10-16T00:09:09.978Z,7.37
2018-10-16T00:10:09.886Z,7.37
2018-10-16T00:11:09.816Z,7.38
2018-10-16T00:12:09.729Z,7.38
2018-10-16T00:13:09.670Z,7.39
2018-10-16T00:14:09.578Z,7.39
2018-10-16T00:15:09.502Z,7.35
2018-10-16T00:16:09.416Z,7.29
2018-10-16T00:17:09.344Z,7.23
2018-10-16T00:18:09.257Z,7.19
2018-10-16T00:19:09.187Z,7.21
2018-10-16T00:20:09.094Z,7.13
2018-10-16T00:21:09.024Z,6.99
2018-10-16T00:22:08.937Z,6.96
2018-10-16T00:23:08.865Z,6.96
2018-10-16T00:24:08.780Z,6.90
2018-10-16T00:25:08.704Z,6.96
2018-10-16T00:26:08.617Z,6.91
2018-10-16T00:27:08.548Z,6.83
2018-10-16T00:28:08.464Z,6.78
2018-10-16T00:29:08.385Z,6.78
2018-10-16T00:30:08.305Z,6.93
2018-10-16T00:31:08.227Z,6.88
2018-10-16T00:32:08.142Z,6.98
2018-10-16T00:33:08.069Z,6.99
2018-10-16T00:34:07.988Z,6.98
2018-10-16T00:35:07.911Z,7.12
2018-10-16T00:36:07.821Z,7.08
2018-10-16T00:37:07.751Z,7.16
2018-10-16T00:38:07.667Z,7.23
2018-10-16T00:39:07.591Z,7.34
2018-10-16T00:40:07.508Z,7.37
2018-10-16T00:41:07.439Z,7.41
2018-10-16T00:42:07.347Z,7.45
2018-10-16T00:43:07.270Z,7.42
2018-10-16T00:44:07.188Z,7.45
2018-10-16T00:45:07.123Z,7.49
2018-10-16T00:46:07.027Z,7.45
2018-10-16T00:47:06.958Z,7.47
2018-10-16T00:48:06.866Z,7.47
2018-10-16T00:49:06.799Z,7.38
2018-10-16T00:50:06.705Z,7.35
2018-10-16T00:51:06.635Z,7.31
2018-10-16T00:52:06.548Z,7.30
2018-10-16T00:53:06.476Z,7.31
2018-10-16T00:54:06.389Z,7.24
2018-10-16T00:55:06.316Z,7.23
2018-10-16T00:56:06.230Z,7.29
2018-10-16T00:57:06.165Z,7.29
2018-10-16T00:58:06.069Z,7.27
2018-10-16T00:59:05.997Z,7.30
2018-10-16T01:00:05.909Z,7.26
2018-10-16T01:01:05.836Z,7.26
2018-10-16T01:02:05.760Z,7.19
2018-10-16T01:03:05.679Z,7.24
2018-10-16T01:04:05.586Z,7.21
2018-10-16T01:05:05.519Z,7.06
2018-10-16T01:06:05.434Z,7.03
2018-10-16T01:07:05.359Z,6.91
2018-10-16T01:08:05.276Z,6.90
2018-10-16T01:09:05.198Z,6.78
2018-10-16T01:10:05.112Z,6.70
2018-10-16T01:11:05.043Z,6.70
2018-10-16T01:12:04.954Z,6.69
2018-10-16T01:13:04.879Z,6.66
2018-10-16T01:14:04.813Z,6.63
2018-10-16T01:15:04.719Z,6.66
2018-10-16T01:16:04.635Z,6.54
2018-10-16T01:17:04.561Z,6.62
2018-10-16T01:18:04.475Z,6.44
2018-10-16T01:19:04.405Z,6.37
2018-10-16T01:20:04.318Z,6.39
2018-10-16T01:21:04.242Z,6.34
2018-10-16T01:22:04.155Z,6.37
2018-10-16T01:23:04.089Z,6.32
2018-10-16T01:24:03.997Z,6.21
2018-10-16T01:25:03.926Z,6.21
2018-10-16T01:26:03.844Z,6.21
2018-10-16T01:27:03.764Z,6.17
2018-10-16T01:28:03.677Z,6.13
2018-10-16T01:29:03.604Z,6.18
2018-10-16T01:30:03.519Z,6.13
2018-10-16T01:31:03.443Z,6.14
2018-10-16T01:32:03.360Z,6.17
2018-10-16T01:33:03.285Z,6.18
2018-10-16T01:34:03.193Z,6.10
2018-10-16T01:35:03.118Z,6.14
2018-10-16T01:36:03.034Z,6.21
2018-10-16T01:37:02.964Z,6.18
2018-10-16T01:38:02.876Z,6.15
2018-10-16T01:39:02.803Z,6.21
2018-10-16T01:40:02.713Z,6.24
2018-10-16T01:41:02.644Z,6.22
2018-10-16T01:42:02.555Z,6.27
2018-10-16T01:43:02.484Z,6.30
2018-10-16T01:44:02.394Z,6.37
2018-10-16T01:45:02.320Z,6.34
2018-10-16T01:46:02.240Z,6.42
2018-10-16T01:47:02.166Z,6.47
2018-10-16T01:48:02.075Z,6.44
2018-10-16T01:49:02.004Z,6.47
2018-10-16T01:50:01.915Z,6.48
2018-10-16T01:51:01.845Z,6.36
2018-10-16T01:52:01.755Z,6.33
2018-10-16T01:53:01.734Z,6.24
2018-10-16T01:54:01.603Z,6.21
2018-10-16T01:55:01.520Z,6.11
2018-10-16T01:56:01.433Z,5.99
2018-10-16T01:57:01.364Z,5.95
2018-10-16T01:58:01.275Z,6.00
2018-10-16T01:59:01.206Z,5.92
2018-10-16T02:00:01.113Z,6.04
2018-10-16T02:01:01.046Z,6.08
2018-10-16T02:02:00.958Z,6.10
2018-10-16T02:03:00.882Z,6.21
2018-10-16T02:04:00.794Z,6.24
2018-10-16T02:05:00.721Z,6.18
2018-10-16T02:06:00.632Z,6.24
2018-10-16T02:07:00.558Z,6.26
2018-10-16T02:08:00.471Z,6.15
2018-10-16T02:09:00.402Z,6.17
2018-10-16T02:10:00.314Z,6.10
2018-10-16T02:11:00.241Z,6.14
2018-10-16T02:12:00.151Z,6.11
2018-10-16T02:13:00.083Z,6.07
2018-10-16T02:13:59.990Z,5.97
2018-10-16T02:14:59.918Z,5.96
2018-10-16T02:15:59.840Z,5.92
2018-10-16T02:16:59.760Z,5.83
2018-10-16T02:17:59.671Z,5.90
2018-10-16T02:18:59.596Z,5.86
2018-10-16T02:19:59.510Z,5.83
2018-10-16T02:20:59.437Z,5.96
2018-10-16T02:21:59.347Z,5.92
2018-10-16T02:22:59.275Z,6.08
2018-10-16T02:23:59.190Z,6.07
2018-10-16T02:24:59.118Z,6.07
2018-10-16T02:25:59.029Z,6.18
2018-10-16T02:26:58.951Z,6.18
2018-10-16T02:27:58.867Z,6.22
2018-10-16T02:28:58.800Z,6.26
2018-10-16T02:29:58.708Z,6.27
2018-10-16T02:30:58.633Z,6.30
2018-10-16T02:31:58.546Z,6.34
2018-10-16T02:32:58.478Z,6.30
2018-10-16T02:33:58.385Z,6.39
2018-10-16T02:34:58.316Z,6.33
2018-10-16T02:35:58.225Z,6.33
2018-10-16T02:36:58.153Z,6.27
2018-10-16T02:37:58.062Z,6.36
2018-10-16T02:38:58.004Z,6.26
2018-10-16T02:39:57.905Z,6.14
2018-10-16T02:40:57.833Z,6.03
2018-10-16T02:41:57.747Z,6.13
2018-10-16T02:42:57.670Z,6.07
2018-10-16T02:43:57.583Z,6.07
2018-10-16T02:44:58.008Z,6.04
2018-10-16T02:45:57.425Z,6.04
2018-10-16T02:46:57.346Z,6.04
2018-10-16T02:47:57.260Z,6.15
2018-10-16T02:48:57.192Z,6.13
2018-10-16T02:49:57.102Z,6.06
2018-10-16T02:50:57.029Z,5.99
2018-10-16T02:51:56.941Z,5.97
2018-10-16T02:52:56.875Z,5.99
2018-10-16T02:53:56.784Z,5.97
2018-10-16T02:54:56.709Z,5.99
2018-10-16T02:55:56.619Z,5.92
2018-10-16T02:56:56.544Z,5.86
2018-10-16T02:57:56.460Z,5.72
2018-10-16T02:58:56.399Z,5.67
2018-10-16T02:59:56.303Z,5.63
2018-10-16T03:00:56.230Z,5.57
2018-10-16T03:01:56.136Z,5.57
2018-10-16T03:02:56.064Z,5.52
2018-10-16T03:03:55.977Z,5.54
2018-10-16T03:04:55.911Z,5.45
2018-10-16T03:05:55.820Z,5.45
2018-10-16T03:06:55.749Z,5.42
2018-10-16T03:07:55.661Z,5.42
2018-10-16T03:08:55.593Z,5.32
2018-10-16T03:09:55.497Z,5.38
2018-10-16T03:10:55.507Z,5.39
2018-10-16T03:11:55.384Z,5.44
2018-10-16T03:12:55.271Z,5.42
2018-10-16T03:13:55.171Z,5.36
2018-10-16T03:14:55.120Z,5.38
2018-10-16T03:15:55.011Z,5.31
2018-10-16T03:16:54.948Z,5.29
2018-10-16T03:17:54.850Z,5.23
2018-10-16T03:18:54.840Z,5.24
2018-10-16T03:19:54.688Z,5.29
2018-10-16T03:20:54.649Z,5.28
2018-10-16T03:21:54.531Z,5.36
2018-10-16T03:22:54.559Z,5.41
2018-10-16T03:23:54.367Z,5.41
2018-10-16T03:24:54.363Z,5.50
2018-10-16T03:25:54.205Z,5.50
2018-10-16T03:26:54.174Z,5.54
2018-10-16T03:27:54.046Z,5.54
2018-10-16T03:28:53.986Z,5.68
2018-10-16T03:29:54.025Z,5.60
2018-10-16T03:30:53.801Z,5.65
2018-10-16T03:31:53.797Z,5.59
2018-10-16T03:32:53.641Z,5.62
2018-10-16T03:33:53.606Z,5.68
2018-10-16T03:34:53.479Z,5.59
2018-10-16T03:35:53.417Z,5.57
2018-10-16T03:36:53.317Z,5.67
2018-10-16T03:37:53.246Z,5.63
2018-10-16T03:38:53.156Z,5.65
2018-10-16T03:39:53.089Z,5.59
2018-10-16T03:40:52.997Z,5.67
2018-10-16T03:41:52.923Z,5.59
2018-10-16T03:42:52.835Z,5.54
2018-10-16T03:43:52.855Z,5.65
2018-10-16T03:44:52.676Z,5.68
2018-10-16T03:45:52.723Z,5.59
2018-10-16T03:46:52.517Z,5.50
2018-10-16T03:47:52.439Z,5.54
2018-10-16T03:48:52.350Z,5.53
2018-10-16T03:49:52.281Z,5.54
2018-10-16T03:50:52.191Z,5.56
2018-10-16T03:51:52.192Z,5.63
2018-10-16T03:52:52.033Z,5.60
2018-10-16T03:53:52.000Z,5.63
2018-10-16T03:54:51.867Z,5.57
2018-10-16T03:55:51.809Z,5.54
2018-10-16T03:56:51.708Z,5.52
2018-10-16T03:57:51.720Z,5.54
2018-10-16T03:58:51.545Z,5.56
2018-10-16T03:59:51.472Z,5.41
2018-10-16T04:00:51.387Z,5.44
2018-10-16T04:01:51.338Z,5.34
2018-10-16T04:02:51.222Z,5.28
2018-10-16T04:03:51.248Z,5.24
2018-10-16T04:04:51.064Z,5.28
2018-10-16T04:05:51.057Z,5.34
2018-10-16T04:06:51.015Z,5.29
2018-10-16T04:07:50.865Z,5.36
2018-10-16T04:08:50.740Z,5.38
2018-10-16T04:09:50.777Z,5.38
2018-10-16T04:10:50.578Z,5.44
2018-10-16T04:11:50.583Z,5.35
2018-10-16T04:12:50.416Z,5.44
2018-10-16T04:13:50.449Z,5.42
2018-10-16T04:14:50.254Z,5.44
2018-10-16T04:15:50.205Z,5.42
2018-10-16T04:16:50.093Z,5.29
2018-10-16T04:17:50.113Z,5.23
2018-10-16T04:18:49.932Z,5.21
2018-10-16T04:19:49.930Z,5.16
2018-10-16T04:20:49.773Z,5.13
2018-10-16T04:21:49.731Z,5.11
2018-10-16T04:22:49.667Z,5.11
2018-10-16T04:23:49.641Z,5.17
2018-10-16T04:24:49.448Z,5.26
2018-10-16T04:25:49.451Z,5.26
2018-10-16T04:26:49.287Z,5.32
2018-10-16T04:27:49.219Z,5.29
2018-10-16T04:28:49.125Z,5.41
2018-10-16T04:29:49.068Z,5.36
2018-10-16T04:30:48.966Z,5.38
2018-10-16T04:31:48.979Z,5.45
2018-10-16T04:32:48.802Z,5.44
2018-10-16T04:33:48.788Z,5.59
2018-10-16T04:34:48.640Z,5.54
2018-10-16T04:35:48.596Z,5.57
2018-10-16T04:36:48.482Z,5.42
2018-10-16T04:37:48.507Z,5.38
2018-10-16T04:38:48.318Z,5.24
2018-10-16T04:39:48.244Z,5.06
2018-10-16T04:40:48.156Z,5.00
2018-10-16T04:41:48.128Z,4.87
2018-10-16T04:42:47.995Z,4.76
2018-10-16T04:43:47.985Z,4.73
2018-10-16T04:44:47.833Z,4.73
2018-10-16T04:45:47.846Z,4.72
2018-10-16T04:46:47.672Z,4.84
2018-10-16T04:47:47.650Z,4.80
2018-10-16T04:48:47.516Z,4.96
2018-10-16T04:49:47.466Z,5.03
2018-10-16T04:50:47.352Z,5.02
2018-10-16T04:51:47.276Z,5.21
2018-10-16T04:52:47.185Z,5.21
2018-10-16T04:53:47.111Z,5.36
2018-10-16T04:54:47.025Z,5.29
2018-10-16T04:55:46.952Z,5.41
2018-10-16T04:56:46.865Z,5.41
2018-10-16T04:57:46.787Z,5.41
2018-10-16T04:58:46.703Z,5.36
2018-10-16T04:59:46.632Z,5.28
2018-10-16T05:00:46.540Z,5.31
2018-10-16T05:01:46.473Z,5.17
2018-10-16T05:02:46.377Z,5.16
2018-10-16T05:03:46.304Z,5.11
2018-10-16T05:04:46.216Z,5.05
2018-10-16T05:05:46.146Z,5.03
2018-10-16T05:06:46.054Z,5.08
2018-10-16T05:07:45.981Z,5.08
2018-10-16T05:08:45.897Z,5.11
2018-10-16T05:09:45.854Z,5.03
2018-10-16T05:10:45.733Z,5.08
2018-10-16T05:11:45.662Z,5.13
2018-10-16T05:12:45.570Z,5.17
2018-10-16T05:13:45.502Z,5.21
2018-10-16T05:14:45.409Z,5.18
2018-10-16T05:15:45.346Z,5.17
2018-10-16T05:16:45.246Z,5.16
2018-10-16T05:17:45.172Z,5.21
2018-10-16T05:18:45.086Z,5.05
2018-10-16T05:19:45.104Z,4.95
2018-10-16T05:20:44.922Z,5.00
2018-10-16T05:21:44.912Z,4.95
2018-10-16T05:22:44.761Z,4.91
2018-10-16T05:23:44.722Z,4.83
2018-10-16T05:24:44.600Z,4.98
2018-10-16T05:25:44.632Z,4.92
2018-10-16T05:26:44.445Z,4.96
2018-10-16T05:27:44.440Z,5.05
2018-10-16T05:28:44.275Z,5.05
2018-10-16T05:29:44.249Z,5.11
2018-10-16T05:30:44.112Z,5.17
2018-10-16T05:31:44.053Z,5.18
2018-10-16T05:32:43.953Z,5.23
2018-10-16T05:33:43.968Z,5.20
2018-10-16T05:34:43.791Z,5.26
2018-10-16T05:35:43.776Z,5.34
2018-10-16T05:36:43.628Z,5.44
2018-10-16T05:37:43.584Z,5.47
2018-10-16T05:38:43.467Z,5.45
2018-10-16T05:39:43.496Z,5.38
2018-10-16T05:40:43.307Z,5.57
2018-10-16T05:41:43.303Z,5.47
2018-10-16T05:42:43.153Z,5.44
2018-10-16T05:43:43.114Z,5.28
2018-10-16T05:44:42.980Z,5.24
2018-10-16T05:45:42.921Z,5.10
2018-10-16T05:46:42.821Z,5.02
2018-10-16T05:47:42.833Z,5.05
2018-10-16T05:48:42.657Z,5.10
2018-10-16T05:49:42.641Z,5.13
2018-10-16T05:50:42.494Z,5.20
2018-10-16T05:51:42.449Z,5.18
2018-10-16T05:52:42.337Z,5.23
2018-10-16T05:53:42.367Z,5.29
2018-10-16T05:54:42.174Z,5.31
2018-10-16T05:55:42.168Z,5.32
2018-10-16T05:56:42.013Z,5.34
2018-10-16T05:57:41.935Z,5.41
2018-10-16T05:58:41.852Z,5.42
2018-10-16T05:59:41.785Z,5.38
2018-10-16T06:00:41.689Z,5.49
2018-10-16T06:01:41.698Z,5.47
2018-10-16T06:02:41.523Z,5.38
2018-10-16T06:03:41.510Z,5.39
2018-10-16T06:04:41.363Z,5.47
2018-10-16T06:05:41.434Z,5.47
2018-10-16T06:06:41.210Z,5.35
2018-10-16T06:07:41.224Z,5.42
2018-10-16T06:08:41.040Z,5.42
2018-10-16T06:09:41.034Z,5.42
2018-10-16T06:10:40.882Z,5.52
2018-10-16T06:11:40.844Z,5.59
2018-10-16T06:12:40.716Z,5.49
2018-10-16T06:13:40.651Z,5.34
2018-10-16T06:14:40.556Z,5.26
2018-10-16T06:15:40.561Z,5.21
2018-10-16T06:16:40.391Z,5.16
2018-10-16T06:17:40.371Z,5.14
2018-10-16T06:18:40.228Z,5.10
2018-10-16T06:19:40.178Z,5.11
2018-10-16T06:20:40.070Z,5.17
2018-10-16T06:21:40.088Z,5.16
2018-10-16T06:22:39.905Z,5.29
2018-10-16T06:23:39.898Z,5.26
2018-10-16T06:24:39.746Z,5.44
2018-10-16T06:25:39.709Z,5.49
2018-10-16T06:26:39.579Z,5.50
2018-10-16T06:27:39.674Z,5.57
2018-10-16T06:28:39.421Z,5.60
2018-10-16T06:29:39.430Z,5.62
2018-10-16T06:30:39.261Z,5.68
2018-10-16T06:31:39.238Z,5.72
2018-10-16T06:32:39.097Z,5.77
2018-10-16T06:33:39.044Z,5.75
2018-10-16T06:34:38.938Z,5.67
2018-10-16T06:35:38.955Z,5.71
2018-10-16T06:36:38.776Z,5.65
2018-10-16T06:37:38.759Z,5.67
2018-10-16T06:38:38.612Z,5.72
2018-10-16T06:39:38.572Z,5.63
2018-10-16T06:40:38.573Z,5.72
2018-10-16T06:41:38.546Z,5.72
2018-10-16T06:42:38.288Z,5.86
2018-10-16T06:43:38.210Z,5.86
2018-10-16T06:44:38.129Z,5.88
2018-10-16T06:45:38.096Z,5.97
2018-10-16T06:46:38.054Z,5.93
2018-10-16T06:47:37.945Z,6.04
2018-10-16T06:48:38.112Z,6.11
2018-10-16T06:49:37.730Z,6.08
2018-10-16T06:50:37.641Z,6.11
2018-10-16T06:51:37.563Z,5.99
2018-10-16T06:52:37.485Z,6.00
2018-10-16T06:53:37.400Z,6.11
2018-10-16T06:54:37.393Z,6.03
2018-10-16T06:55:37.240Z,6.10
2018-10-16T06:56:37.162Z,6.13
2018-10-16T06:57:37.079Z,6.18
2018-10-16T06:58:36.997Z,6.21
2018-10-16T06:59:36.920Z,6.34
2018-10-16T07:00:36.972Z,6.36
2018-10-16T07:01:36.755Z,6.50
2018-10-16T07:02:36.878Z,6.55
2018-10-16T07:03:36.594Z,6.68
2018-10-16T07:04:36.590Z,6.68
2018-10-16T07:05:36.437Z,6.83
2018-10-16T07:06:36.406Z,6.93
2018-10-16T07:07:36.270Z,7.02
2018-10-16T07:08:36.412Z,7.19
2018-10-16T07:09:36.118Z,7.24
2018-10-16T07:10:36.118Z,7.42
2018-10-16T07:11:35.952Z,7.59
2018-10-16T07:12:36.034Z,7.70
2018-10-16T07:13:35.790Z,7.73
2018-10-16T07:14:36.860Z,7.91
2018-10-16T07:15:35.630Z,7.93
2018-10-16T07:16:35.748Z,8.04
2018-10-16T07:17:35.469Z,8.17
2018-10-16T07:18:40.269Z,8.25
2018-10-16T07:19:35.343Z,8.37
2018-10-16T07:20:35.370Z,8.52
2018-10-16T07:21:35.166Z,8.61
2018-10-16T07:22:35.278Z,8.80
2018-10-16T07:23:35.017Z,8.98
2018-10-16T07:24:35.090Z,9.09
2018-10-16T07:25:34.830Z,9.24
2018-10-16T07:26:34.900Z,9.32
2018-10-16T07:27:34.668Z,9.42
2018-10-16T07:28:34.808Z,9.50
2018-10-16T07:29:34.508Z,9.56
2018-10-16T07:30:34.618Z,9.71
2018-10-16T07:31:35.035Z,9.86
2018-10-16T07:32:34.323Z,9.97
2018-10-16T07:33:34.191Z,9.98
2018-10-16T07:34:34.235Z,10.04
2018-10-16T07:35:34.035Z,10.21
2018-10-16T07:36:34.146Z,10.23
2018-10-16T07:37:33.873Z,10.47
2018-10-16T07:38:33.905Z,10.56
2018-10-16T07:39:33.716Z,10.59
2018-10-16T07:40:33.658Z,10.85
2018-10-16T07:41:33.555Z,10.92
2018-10-16T07:42:33.571Z,11.10
2018-10-16T07:43:33.396Z,11.24
2018-10-16T07:44:33.376Z,11.31
2018-10-16T07:45:33.241Z,11.53
2018-10-16T07:46:33.187Z,11.65
2018-10-16T07:47:33.078Z,11.79
2018-10-16T07:48:33.178Z,11.98
2018-10-16T07:49:32.923Z,12.05
2018-10-16T07:50:32.903Z,12.21
2018-10-16T07:51:32.763Z,12.28
2018-10-16T07:52:32.714Z,12.44
2018-10-16T07:53:32.606Z,12.51
2018-10-16T07:54:32.627Z,12.55
2018-10-16T07:55:32.453Z,12.59
2018-10-16T07:56:32.433Z,12.59
2018-10-16T07:57:32.302Z,12.66
2018-10-16T07:58:32.240Z,12.81
2018-10-16T07:59:32.133Z,12.85
2018-10-16T08:00:32.152Z,12.79
2018-10-16T08:01:31.978Z,12.84
2018-10-16T08:02:31.960Z,12.86
2018-10-16T08:03:31.828Z,12.99
2018-10-16T08:04:31.770Z,12.97
2018-10-16T08:05:31.662Z,13.09
2018-10-16T08:06:31.681Z,13.18
2018-10-16T08:07:31.507Z,13.18
2018-10-16T08:08:31.492Z,13.25
2018-10-16T08:09:31.347Z,13.22
2018-10-16T08:10:31.297Z,13.36
2018-10-16T08:11:31.227Z,13.38
2018-10-16T08:12:31.213Z,13.62
2018-10-16T08:13:31.038Z,13.76
2018-10-16T08:14:31.015Z,13.68
2018-10-16T08:15:30.880Z,13.80
2018-10-16T08:16:30.823Z,13.94
2018-10-16T08:17:30.727Z,14.03
2018-10-16T08:18:30.736Z,14.17
2018-10-16T08:19:30.567Z,14.31
2018-10-16T08:20:30.544Z,14.39
2018-10-16T08:21:30.411Z,14.53
2018-10-16T08:22:30.456Z,14.54
2018-10-16T08:23:30.262Z,14.61
2018-10-16T08:24:30.262Z,14.80
2018-10-16T08:25:30.106Z,14.90
2018-10-16T08:26:30.076Z,14.93
2018-10-16T08:27:29.951Z,15.13
2018-10-16T08:28:29.978Z,15.16
2018-10-16T08:29:29.797Z,15.13
2018-10-16T08:30:29.869Z,15.13
2018-10-16T08:31:29.635Z,15.12
2018-10-16T08:32:29.600Z,15.09
2018-10-16T08:33:29.484Z,14.93
2018-10-16T08:34:29.511Z,14.94
2018-10-16T08:35:29.337Z,15.05
2018-10-16T08:36:29.441Z,15.01
2018-10-16T08:37:29.179Z,15.06
2018-10-16T08:38:29.127Z,15.06
2018-10-16T08:39:29.054Z,15.13
2018-10-16T08:40:29.038Z,15.09
2018-10-16T08:41:28.872Z,15.15
2018-10-16T08:42:28.854Z,15.10
2018-10-16T08:43:28.717Z,15.02
2018-10-16T08:44:28.760Z,14.97
2018-10-16T08:45:28.564Z,14.94
2018-10-16T08:46:28.569Z,14.83
2018-10-16T08:47:28.466Z,14.90
2018-10-16T08:48:28.376Z,14.83
2018-10-16T08:49:28.258Z,14.90
2018-10-16T08:50:28.187Z,15.02
2018-10-16T08:51:28.105Z,15.15
2018-10-16T08:52:28.094Z,15.20
2018-10-16T08:53:27.949Z,15.30
2018-10-16T08:54:27.905Z,15.46
2018-10-16T08:55:27.793Z,15.55
2018-10-16T08:56:27.816Z,15.55
2018-10-16T08:57:27.646Z,15.76
2018-10-16T08:58:27.626Z,15.89
2018-10-16T08:59:27.484Z,16.06
2018-10-16T09:00:27.433Z,16.04
2018-10-16T09:01:27.336Z,16.14
2018-10-16T09:02:27.339Z,16.12
2018-10-16T09:03:27.186Z,16.35
2018-10-16T09:04:27.152Z,16.41
2018-10-16T09:05:27.032Z,16.47
2018-10-16T09:06:27.059Z,16.40
2018-10-16T09:07:26.880Z,16.52
2018-10-16T09:08:26.871Z,16.56
2018-10-16T09:09:26.725Z,16.71
2018-10-16T09:10:26.680Z,16.81
2018-10-16T09:11:26.574Z,16.89
2018-10-16T09:12:26.593Z,16.89
2018-10-16T09:13:26.427Z,16.96
2018-10-16T09:14:26.510Z,17.00
2018-10-16T09:15:26.272Z,17.18
2018-10-16T09:16:26.310Z,17.18
2018-10-16T09:17:26.119Z,17.43
2018-10-16T09:18:26.120Z,17.51
2018-10-16T09:19:25.963Z,17.57
2018-10-16T09:20:25.928Z,17.58
2018-10-16T09:21:25.818Z,17.67
2018-10-16T09:22:25.840Z,17.82
2018-10-16T09:23:25.667Z,17.87
2018-10-16T09:24:25.689Z,17.89
2018-10-16T09:25:25.517Z,18.07
2018-10-16T09:26:25.444Z,18.24
2018-10-16T09:27:25.364Z,18.22
2018-10-16T09:28:25.298Z,18.24
2018-10-16T09:29:25.214Z,18.31
2018-10-16T09:30:25.145Z,18.42
2018-10-16T09:31:25.067Z,18.50
2018-10-16T09:32:24.995Z,18.39
2018-10-16T09:33:24.917Z,18.55
2018-10-16T09:34:24.896Z,18.53
2018-10-16T09:35:24.766Z,18.46
2018-10-16T09:36:24.808Z,18.43
2018-10-16T09:37:24.621Z,18.57
2018-10-16T09:38:24.616Z,18.57
2018-10-16T09:39:24.463Z,18.61
2018-10-16T09:40:24.425Z,18.58
2018-10-16T09:41:24.318Z,18.62
2018-10-16T09:42:24.337Z,18.68
2018-10-16T09:43:24.171Z,18.76
2018-10-16T09:44:24.145Z,18.69
2018-10-16T09:45:24.018Z,18.58
2018-10-16T09:46:24.056Z,18.57
2018-10-16T09:48:55.749Z,18.42
2018-10-16T09:49:55.717Z,18.58
2018-10-16T09:51:49.928Z,18.65
2018-10-16T09:52:49.737Z,18.71
2018-10-16T09:54:44.941Z,18.80
2018-10-16T09:55:44.904Z,18.86
2018-10-16T09:56:44.770Z,18.97
2018-10-16T09:57:44.706Z,18.97
2018-10-16T09:58:44.625Z,19.09
2018-10-16T09:59:44.633Z,19.23
2018-10-16T10:00:44.535Z,19.27
2018-10-16T10:01:44.438Z,19.35
2018-10-16T10:02:44.332Z,19.43
2018-10-16T10:03:44.343Z,19.50
2018-10-16T10:04:44.179Z,19.51
2018-10-16T10:05:44.147Z,19.58
2018-10-16T10:06:44.031Z,19.68
2018-10-16T10:07:44.063Z,19.69
2018-10-16T10:08:43.882Z,19.68
2018-10-16T10:09:43.870Z,19.72
2018-10-16T10:10:43.737Z,19.75
2018-10-16T10:11:43.679Z,19.87
2018-10-16T10:12:43.587Z,19.93
2018-10-16T10:13:43.589Z,19.97
2018-10-16T10:14:43.441Z,20.00
2018-10-16T10:15:43.400Z,20.00
2018-10-16T10:16:43.297Z,19.93
2018-10-16T10:17:43.311Z,20.09
2018-10-16T10:18:43.153Z,20.16
2018-10-16T10:19:43.118Z,20.23
2018-10-16T10:20:43.003Z,20.27
2018-10-16T10:21:43.031Z,20.42
2018-10-16T10:22:42.849Z,20.42
2018-10-16T10:23:42.839Z,20.42
2018-10-16T10:24:42.706Z,20.46
2018-10-16T10:25:42.748Z,20.61
2018-10-16T10:26:42.564Z,20.57
2018-10-16T10:27:42.560Z,20.61
2018-10-16T10:28:42.417Z,20.71
2018-10-16T10:29:42.406Z,20.86
2018-10-16T10:30:42.269Z,20.93
2018-10-16T10:31:42.279Z,20.82
2018-10-16T10:32:42.127Z,20.82
2018-10-16T10:33:42.087Z,20.80
2018-10-16T10:34:41.974Z,20.76
2018-10-16T10:35:41.997Z,20.82
2018-10-16T10:36:41.831Z,20.83
2018-10-16T10:37:41.805Z,20.74
2018-10-16T10:38:41.683Z,20.90
2018-10-16T10:39:41.719Z,20.80
2018-10-16T10:40:41.533Z,20.91
2018-10-16T10:41:41.528Z,20.96
2018-10-16T10:42:41.391Z,20.96
2018-10-16T10:43:41.436Z,21.05
2018-10-16T10:44:41.247Z,21.08
2018-10-16T10:45:41.245Z,21.09
2018-10-16T10:46:41.106Z,21.19
2018-10-16T10:47:41.028Z,21.16
2018-10-16T10:48:41.107Z,21.31
2018-10-16T10:49:40.885Z,21.29
2018-10-16T10:50:41.311Z,21.53
2018-10-16T10:51:41.048Z,21.57
2018-10-16T10:52:40.827Z,21.69
2018-10-16T10:53:40.591Z,21.64
2018-10-16T10:54:40.636Z,21.67
2018-10-16T10:55:40.449Z,21.75
2018-10-16T10:56:40.531Z,21.70
2018-10-16T10:57:40.305Z,21.64
2018-10-16T10:58:40.357Z,21.69
2018-10-16T10:59:40.161Z,21.67
2018-10-16T11:00:40.170Z,21.67
2018-10-16T11:01:40.016Z,21.61
2018-10-16T11:02:40.075Z,21.69
2018-10-16T11:03:40.080Z,21.66
2018-10-16T11:04:39.888Z,21.72
2018-10-16T11:05:39.726Z,21.64
2018-10-16T11:06:39.796Z,21.75
2018-10-16T11:07:39.615Z,21.79
2018-10-16T11:08:39.607Z,21.98
2018-10-16T11:09:39.439Z,21.95
2018-10-16T11:10:39.518Z,22.04
2018-10-16T11:11:39.297Z,21.91
2018-10-16T11:12:39.326Z,21.97
2018-10-16T11:13:39.150Z,22.08
2018-10-16T11:14:39.080Z,22.15
2018-10-16T11:15:39.006Z,22.17
2018-10-16T11:16:38.933Z,22.35
2018-10-16T11:17:38.994Z,22.41
2018-10-16T11:18:38.795Z,22.56
2018-10-16T11:19:38.868Z,22.65
2018-10-16T11:20:38.649Z,22.63
2018-10-16T11:21:38.579Z,22.54
2018-10-16T11:22:38.680Z,22.68
2018-10-16T11:23:38.436Z,22.69
2018-10-16T11:24:38.364Z,22.71
2018-10-16T11:25:38.395Z,22.75
2018-10-16T11:26:38.226Z,22.89
2018-10-16T11:27:38.202Z,22.84
2018-10-16T11:28:38.078Z,22.89
2018-10-16T11:29:38.118Z,22.87
2018-10-16T11:30:37.936Z,22.93
2018-10-16T11:31:37.923Z,22.89
2018-10-16T11:32:37.793Z,22.94
2018-10-16T11:33:37.835Z,23.04
2018-10-16T11:34:37.651Z,23.17
2018-10-16T11:35:37.642Z,23.11
2018-10-16T11:36:37.503Z,23.17
2018-10-16T11:37:37.557Z,23.08
2018-10-16T11:38:37.369Z,23.02
2018-10-16T11:39:37.369Z,23.12
2018-10-16T11:40:37.265Z,23.11
2018-10-16T11:41:37.173Z,23.27
2018-10-16T11:42:37.080Z,23.37
2018-10-16T11:43:37.188Z,23.40
2018-10-16T11:44:36.943Z,23.46
2018-10-16T11:45:36.943Z,23.56
2018-10-16T11:46:36.798Z,23.49
2018-10-16T11:47:36.801Z,23.50
2018-10-16T11:48:36.660Z,23.58
2018-10-16T11:49:36.718Z,23.61
2018-10-16T11:50:36.513Z,23.74
2018-10-16T11:51:36.522Z,23.64
2018-10-16T11:52:36.368Z,23.74
2018-10-16T11:53:36.438Z,23.75
2018-10-16T11:54:36.237Z,23.83
2018-10-16T11:55:36.248Z,23.72
2018-10-16T11:56:36.090Z,23.79
2018-10-16T11:57:36.021Z,23.90
2018-10-16T11:58:35.951Z,23.86
2018-10-16T11:59:35.962Z,23.93
2018-10-16T12:00:35.814Z,23.90
2018-10-16T12:01:35.880Z,23.85
2018-10-16T12:02:35.728Z,23.86
2018-10-16T12:03:35.688Z,23.89
2018-10-16T12:04:35.528Z,23.92
2018-10-16T12:05:35.601Z,23.90
2018-10-16T12:06:35.391Z,24.05
2018-10-16T12:07:35.406Z,23.92
2018-10-16T12:08:35.248Z,23.85
2018-10-16T12:09:35.319Z,23.72
2018-10-16T12:10:35.169Z,23.72
2018-10-16T12:11:35.133Z,23.79
2018-10-16T12:12:34.963Z,23.92
2018-10-16T12:13:35.040Z,23.95
2018-10-16T12:14:34.828Z,24.12
2018-10-16T12:15:34.848Z,24.25
2018-10-16T12:16:34.742Z,24.19
2018-10-16T12:17:34.776Z,24.20
2018-10-16T12:18:34.552Z,24.35
2018-10-16T12:19:34.633Z,24.40
2018-10-16T12:20:34.405Z,24.41
2018-10-16T12:21:34.481Z,24.44
2018-10-16T12:22:34.267Z,24.52
2018-10-16T12:23:34.331Z,24.64
2018-10-16T12:24:34.126Z,24.62
2018-10-16T12:25:34.200Z,24.62
2018-10-16T12:26:33.985Z,24.56
2018-10-16T12:27:34.016Z,24.63
2018-10-16T12:28:33.844Z,24.75
2018-10-16T12:29:33.920Z,24.75
2018-10-16T12:30:33.710Z,24.75
2018-10-16T12:31:33.730Z,24.69
2018-10-16T12:32:33.568Z,24.69
2018-10-16T12:33:33.641Z,24.59
2018-10-16T12:34:33.431Z,24.48
2018-10-16T12:35:33.452Z,24.29
2018-10-16T12:36:33.290Z,24.10
2018-10-16T12:37:33.361Z,24.15
2018-10-16T12:38:33.241Z,24.19
2018-10-16T12:39:33.190Z,24.30
2018-10-16T12:40:33.012Z,24.44
2018-10-16T12:41:33.082Z,24.45
2018-10-16T12:42:32.924Z,24.48
2018-10-16T12:43:32.937Z,24.42
2018-10-16T12:44:32.900Z,24.32
2018-10-16T12:45:32.661Z,24.32
2018-10-16T12:46:32.708Z,24.26
2018-10-16T12:47:32.522Z,24.25
2018-10-16T12:48:32.546Z,24.34
2018-10-16T12:49:32.381Z,24.30
2018-10-16T12:50:32.356Z,24.45
2018-10-16T12:51:32.245Z,24.42
2018-10-16T12:52:32.268Z,24.52
2018-10-16T12:53:32.102Z,24.66
2018-10-16T12:54:32.073Z,24.71
2018-10-16T12:55:31.965Z,24.50
2018-10-16T12:56:31.988Z,24.48
2018-10-16T12:57:31.828Z,24.37
2018-10-16T12:58:31.795Z,24.35
2018-10-16T12:59:31.691Z,24.32
2018-10-16T13:00:31.707Z,24.38
2018-10-16T13:01:31.551Z,24.44
2018-10-16T13:02:31.516Z,24.40
2018-10-16T13:03:31.429Z,24.42
2018-10-16T13:04:31.423Z,24.53
2018-10-16T13:05:31.272Z,24.54
2018-10-16T13:06:31.238Z,24.56
2018-10-16T13:07:31.136Z,24.71
2018-10-16T13:08:31.144Z,24.64
2018-10-16T13:09:30.994Z,24.75